フランクフルト の空港の天気 - METARとTAF

フランクフルト国際空港 ( EDDF / FRA ) - ドイツ フランクフルト・アム・マイン
飛行場実況気象(Metar)
観測時間08/05 00:50 CEST (08/04 22:50 UTC)
風向・風速南 2m/s
視程10km以上
天気現象
なし
気温14℃
湿度67%
気圧1017hPa
METAREDDF 042250Z 17003KT 140V200 CAVOK 14/08 Q1017 NOSIG
過去の天気等 Google飛行場航空写真 Wunderground天気予報

過去48時間のMETAR

飛行場予報(TAF)
発表時間: 8/04 19:00 CEST (8/04 17:00 UTC)
予報対象時間: 4日20時 CEST ~ 6日2時 CEST
風向・風速北西 3m/s
視程10km以上
なし
4日20時 CEST ~ 4日22時 CEST に徐々に
風向・風速不定 2m/s
5日11時 CEST ~ 5日13時 CEST に徐々に
風向・風速南 3m/s
5日20時 CEST ~ 5日22時 CEST に徐々に
風向・風速不定 2m/s
TAF EDDF 041700Z 0418/0524 31005KT CAVOK
BECMG 0418/0420 VRB03KT
BECMG 0509/0511 18005KT
BECMG 0518/0520 VRB03KT